sensor_id;sensor_type;location;lat;lon;timestamp;P1;P2;P0
43180;PMS7003;28798;54.950;26.362;2022-08-04T00:03:49;1.4;1.4;1.1
43180;PMS7003;28798;54.950;26.362;2022-08-04T00:08:47;2.1;1.8;0.9
43180;PMS7003;28798;54.950;26.362;2022-08-04T00:13:52;1.2;1.2;1.1
43180;PMS7003;28798;54.950;26.362;2022-08-04T00:18:45;0.9;0.9;0.7
43180;PMS7003;28798;54.950;26.362;2022-08-04T00:23:44;0.9;0.9;0.7
43180;PMS7003;28798;54.950;26.362;2022-08-04T00:28:44;1.2;1.2;1.1
43180;PMS7003;28798;54.950;26.362;2022-08-04T00:33:44;1.7;1.5;1
43180;PMS7003;28798;54.950;26.362;2022-08-04T00:38:44;1.7;1.5;1
43180;PMS7003;28798;54.950;26.362;2022-08-04T00:43:48;0.9;0.9;0.9
43180;PMS7003;28798;54.950;26.362;2022-08-04T00:49:02;0.9;0.9;0.6
43180;PMS7003;28798;54.950;26.362;2022-08-04T00:53:52;0.9;0.9;0.6
43180;PMS7003;28798;54.950;26.362;2022-08-04T00:59:54;0.9;0.9;0.4
43180;PMS7003;28798;54.950;26.362;2022-08-04T01:03:48;0.9;0.9;0.4
43180;PMS7003;28798;54.950;26.362;2022-08-04T01:08:47;1;1;1
43180;PMS7003;28798;54.950;26.362;2022-08-04T01:18:54;1.9;1.3;1.1
43180;PMS7003;28798;54.950;26.362;2022-08-04T01:23:49;1.9;1.3;1.1
43180;PMS7003;28798;54.950;26.362;2022-08-04T01:29:16;0.8;0.8;0.7
43180;PMS7003;28798;54.950;26.362;2022-08-04T01:33:44;0.8;0.8;0.7
43180;PMS7003;28798;54.950;26.362;2022-08-04T01:38:44;1.3;1.3;1.3
43180;PMS7003;28798;54.950;26.362;2022-08-04T01:43:44;1.3;1.3;1.3
43180;PMS7003;28798;54.950;26.362;2022-08-04T01:48:45;1.5;1.5;1.2
43180;PMS7003;28798;54.950;26.362;2022-08-04T01:53:44;1.1;1.1;1
43180;PMS7003;28798;54.950;26.362;2022-08-04T01:58:44;1.1;1.1;1
43180;PMS7003;28798;54.950;26.362;2022-08-04T02:03:44;1.5;1.4;1.3
43180;PMS7003;28798;54.950;26.362;2022-08-04T02:08:48;1.5;1.4;1.3
43180;PMS7003;28798;54.950;26.362;2022-08-04T02:14:01;0.9;0.9;0.8
43180;PMS7003;28798;54.950;26.362;2022-08-04T02:18:48;1.4;1.4;1.1
43180;PMS7003;28798;54.950;26.362;2022-08-04T02:23:45;1.4;1.4;1.1
43180;PMS7003;28798;54.950;26.362;2022-08-04T02:28:51;0;0;0
43180;PMS7003;28798;54.950;26.362;2022-08-04T02:33:45;0;0;0
43180;PMS7003;28798;54.950;26.362;2022-08-04T02:39:00;1.1;1.1;0.8
43180;PMS7003;28798;54.950;26.362;2022-08-04T02:43:46;1.4;0.8;0.8
43180;PMS7003;28798;54.950;26.362;2022-08-04T02:48:45;1.4;0.8;0.8
43180;PMS7003;28798;54.950;26.362;2022-08-04T02:53:44;0.6;0.6;0.5
43180;PMS7003;28798;54.950;26.362;2022-08-04T02:58:45;1.1;1.1;0.9
43180;PMS7003;28798;54.950;26.362;2022-08-04T03:03:49;0.9;0.9;0.8
43180;PMS7003;28798;54.950;26.362;2022-08-04T03:08:53;0.9;0.9;0.8
43180;PMS7003;28798;54.950;26.362;2022-08-04T03:24:23;1.3;1.3;0.9
43180;PMS7003;28798;54.950;26.362;2022-08-04T03:28:51;0.8;0.8;0.8
43180;PMS7003;28798;54.950;26.362;2022-08-04T03:34:21;1;1;1
43180;PMS7003;28798;54.950;26.362;2022-08-04T03:43:58;1.1;1;0.7
43180;PMS7003;28798;54.950;26.362;2022-08-04T03:53:52;0.4;0.4;0.1
43180;PMS7003;28798;54.950;26.362;2022-08-04T03:59:22;1.1;1.1;1
43180;PMS7003;28798;54.950;26.362;2022-08-04T04:09:55;1.4;1.4;1.1
43180;PMS7003;28798;54.950;26.362;2022-08-04T04:14:52;0.9;0.4;0.2
43180;PMS7003;28798;54.950;26.362;2022-08-04T04:18:50;0.9;0.9;0.9
43180;PMS7003;28798;54.950;26.362;2022-08-04T04:23:51;1.4;1.4;0.9
43180;PMS7003;28798;54.950;26.362;2022-08-04T04:28:49;1.4;1.4;0.9
43180;PMS7003;28798;54.950;26.362;2022-08-04T04:33:53;0.9;0.9;0.9
43180;PMS7003;28798;54.950;26.362;2022-08-04T04:39:00;1.1;0.6;0.6
43180;PMS7003;28798;54.950;26.362;2022-08-04T04:44:52;1.1;0.6;0.6
43180;PMS7003;28798;54.950;26.362;2022-08-04T04:48:46;0.9;0.9;0.9
43180;PMS7003;28798;54.950;26.362;2022-08-04T04:54:05;1.6;1.5;1.4
43180;PMS7003;28798;54.950;26.362;2022-08-04T04:58:44;1.2;1.2;0.9
43180;PMS7003;28798;54.950;26.362;2022-08-04T05:04:53;1.6;1.6;1.5
43180;PMS7003;28798;54.950;26.362;2022-08-04T05:08:56;0;0;0
43180;PMS7003;28798;54.950;26.362;2022-08-04T05:13:45;1.3;1.3;1.2
43180;PMS7003;28798;54.950;26.362;2022-08-04T05:18:45;1;0.8;0.6
43180;PMS7003;28798;54.950;26.362;2022-08-04T05:23:45;2;1.7;1.3
43180;PMS7003;28798;54.950;26.362;2022-08-04T05:28:47;2;1.7;1.3
43180;PMS7003;28798;54.950;26.362;2022-08-04T05:33:48;2;1.7;1.3
43180;PMS7003;28798;54.950;26.362;2022-08-04T05:38:44;1.7;1.7;1.5
43180;PMS7003;28798;54.950;26.362;2022-08-04T05:43:44;1.8;1.7;1.4
43180;PMS7003;28798;54.950;26.362;2022-08-04T05:48:44;1.4;1.4;1.1
43180;PMS7003;28798;54.950;26.362;2022-08-04T05:53:44;1.8;1.8;1.7
43180;PMS7003;28798;54.950;26.362;2022-08-04T05:58:44;2.4;2.4;2.4
43180;PMS7003;28798;54.950;26.362;2022-08-04T06:03:44;3.3;3.3;2.4
43180;PMS7003;28798;54.950;26.362;2022-08-04T06:08:46;2.9;2.9;2.6
43180;PMS7003;28798;54.950;26.362;2022-08-04T06:14:00;2.7;2.7;2.2
43180;PMS7003;28798;54.950;26.362;2022-08-04T06:18:44;3.1;3.1;3
43180;PMS7003;28798;54.950;26.362;2022-08-04T06:23:44;2.4;2.4;2.2
43180;PMS7003;28798;54.950;26.362;2022-08-04T06:28:46;2.6;2.6;2.3
43180;PMS7003;28798;54.950;26.362;2022-08-04T06:33:44;4.6;3.3;2.9
43180;PMS7003;28798;54.950;26.362;2022-08-04T06:38:44;2.6;2.6;2.3
43180;PMS7003;28798;54.950;26.362;2022-08-04T06:43:44;3.4;3.4;3.1
43180;PMS7003;28798;54.950;26.362;2022-08-04T06:48:44;3.4;3.4;3.1
43180;PMS7003;28798;54.950;26.362;2022-08-04T06:53:44;3.8;3.5;2.9
43180;PMS7003;28798;54.950;26.362;2022-08-04T06:58:44;2.9;2.9;2.3
43180;PMS7003;28798;54.950;26.362;2022-08-04T07:03:44;3.9;3.9;3.4
43180;PMS7003;28798;54.950;26.362;2022-08-04T07:08:44;3.5;3.5;2.9
43180;PMS7003;28798;54.950;26.362;2022-08-04T07:13:44;3.5;3.4;3
43180;PMS7003;28798;54.950;26.362;2022-08-04T07:18:44;2.9;2.9;2.9
43180;PMS7003;28798;54.950;26.362;2022-08-04T07:23:44;3.8;3.8;3.4
43180;PMS7003;28798;54.950;26.362;2022-08-04T07:28:44;5.1;4.4;3.8
43180;PMS7003;28798;54.950;26.362;2022-08-04T07:33:44;3.7;3.5;3.1
43180;PMS7003;28798;54.950;26.362;2022-08-04T07:38:44;3.1;3;2.7
43180;PMS7003;28798;54.950;26.362;2022-08-04T07:43:44;3.1;3;2.7
43180;PMS7003;28798;54.950;26.362;2022-08-04T07:48:44;3.1;3.1;2.6
43180;PMS7003;28798;54.950;26.362;2022-08-04T07:53:44;2.4;2.4;2.3
43180;PMS7003;28798;54.950;26.362;2022-08-04T07:58:44;2.5;2.5;2.3
43180;PMS7003;28798;54.950;26.362;2022-08-04T08:03:44;2.4;1.9;1.7
43180;PMS7003;28798;54.950;26.362;2022-08-04T08:08:44;2.7;2.7;2.5
43180;PMS7003;28798;54.950;26.362;2022-08-04T08:13:44;2.7;2.7;2.5
43180;PMS7003;28798;54.950;26.362;2022-08-04T08:18:44;2.6;2.6;1.9
43180;PMS7003;28798;54.950;26.362;2022-08-04T08:23:44;2.8;2.8;2.7
43180;PMS7003;28798;54.950;26.362;2022-08-04T08:28:44;2.6;2.6;2.3
43180;PMS7003;28798;54.950;26.362;2022-08-04T08:33:44;2.6;2.6;2.3
43180;PMS7003;28798;54.950;26.362;2022-08-04T08:38:48;2.5;2.5;2.2
43180;PMS7003;28798;54.950;26.362;2022-08-04T08:43:53;2.9;2.9;2.7
43180;PMS7003;28798;54.950;26.362;2022-08-04T08:48:53;2.9;2.9;2.7
43180;PMS7003;28798;54.950;26.362;2022-08-04T08:53:49;1.8;1.8;1.7
43180;PMS7003;28798;54.950;26.362;2022-08-04T08:58:48;2.3;2.3;2.2
43180;PMS7003;28798;54.950;26.362;2022-08-04T09:03:50;2.3;2.3;2.2
43180;PMS7003;28798;54.950;26.362;2022-08-04T09:09:03;1.7;1.7;1.5
43180;PMS7003;28798;54.950;26.362;2022-08-04T09:13:49;3.1;3.1;2.7
43180;PMS7003;28798;54.950;26.362;2022-08-04T09:18:53;3.1;3.1;2.7
43180;PMS7003;28798;54.950;26.362;2022-08-04T09:23:48;2.2;1.7;1.5
43180;PMS7003;28798;54.950;26.362;2022-08-04T09:34:01;2.3;2.3;1.7
43180;PMS7003;28798;54.950;26.362;2022-08-04T09:39:20;2.1;2.1;2
43180;PMS7003;28798;54.950;26.362;2022-08-04T09:43:55;2.9;2.9;2.6
43180;PMS7003;28798;54.950;26.362;2022-08-04T09:48:55;2.6;2.6;2.1
43180;PMS7003;28798;54.950;26.362;2022-08-04T09:54:49;2.8;2.7;2.5
43180;PMS7003;28798;54.950;26.362;2022-08-04T09:59:04;2.4;2;1.9
43180;PMS7003;28798;54.950;26.362;2022-08-04T10:03:47;1.7;1.7;1.6
43180;PMS7003;28798;54.950;26.362;2022-08-04T10:08:53;2.6;2.6;2.2
43180;PMS7003;28798;54.950;26.362;2022-08-04T10:13:51;3.1;3.1;2.8
43180;PMS7003;28798;54.950;26.362;2022-08-04T10:18:47;3.6;2.9;2.4
43180;PMS7003;28798;54.950;26.362;2022-08-04T10:23:51;2.8;2.8;2.5
43180;PMS7003;28798;54.950;26.362;2022-08-04T10:28:49;2.2;2.2;1.7
43180;PMS7003;28798;54.950;26.362;2022-08-04T10:33:48;2.2;2.2;1.7
43180;PMS7003;28798;54.950;26.362;2022-08-04T10:39:17;3.1;3.1;2.7
43180;PMS7003;28798;54.950;26.362;2022-08-04T10:49:50;2.7;2.7;2.6
43180;PMS7003;28798;54.950;26.362;2022-08-04T10:53:44;3.2;3.2;2.5
43180;PMS7003;28798;54.950;26.362;2022-08-04T10:58:45;2.4;2.4;2.2
43180;PMS7003;28798;54.950;26.362;2022-08-04T11:03:46;3.3;3.3;2.8
43180;PMS7003;28798;54.950;26.362;2022-08-04T11:08:46;2.7;2.7;2.1
43180;PMS7003;28798;54.950;26.362;2022-08-04T11:13:46;2.7;2.7;2.6
43180;PMS7003;28798;54.950;26.362;2022-08-04T11:23:47;2.8;2.8;2.8
43180;PMS7003;28798;54.950;26.362;2022-08-04T11:28:48;1.4;1.4;1.1
43180;PMS7003;28798;54.950;26.362;2022-08-04T11:33:46;2.5;2.5;2.1
43180;PMS7003;28798;54.950;26.362;2022-08-04T11:43:48;2.9;2.9;2.2
43180;PMS7003;28798;54.950;26.362;2022-08-04T11:48:47;3.3;3.3;3.2
43180;PMS7003;28798;54.950;26.362;2022-08-04T11:53:44;2.5;2.5;1.9
43180;PMS7003;28798;54.950;26.362;2022-08-04T11:58:44;3.3;3.3;2.5
43180;PMS7003;28798;54.950;26.362;2022-08-04T12:03:48;2.6;2.6;2.1
43180;PMS7003;28798;54.950;26.362;2022-08-04T12:09:17;3.2;3.2;2.9
43180;PMS7003;28798;54.950;26.362;2022-08-04T12:13:49;2.6;2.6;2.6
43180;PMS7003;28798;54.950;26.362;2022-08-04T12:18:46;2.6;2.6;2.6
43180;PMS7003;28798;54.950;26.362;2022-08-04T12:23:44;2.5;2.5;2.3
43180;PMS7003;28798;54.950;26.362;2022-08-04T12:28:45;1.9;1.9;1.8
43180;PMS7003;28798;54.950;26.362;2022-08-04T12:33:47;2.9;2.9;2.6
43180;PMS7003;28798;54.950;26.362;2022-08-04T12:38:47;3.8;3.3;3.1
43180;PMS7003;28798;54.950;26.362;2022-08-04T12:43:44;2.6;2.5;2.4
43180;PMS7003;28798;54.950;26.362;2022-08-04T12:48:44;3.1;3.1;2.9
43180;PMS7003;28798;54.950;26.362;2022-08-04T12:53:44;2.4;2.4;2.1
43180;PMS7003;28798;54.950;26.362;2022-08-04T12:58:45;2;2;1.9
43180;PMS7003;28798;54.950;26.362;2022-08-04T13:04:01;2.7;2.6;2.4
43180;PMS7003;28798;54.950;26.362;2022-08-04T13:08:44;2.6;2.6;2.4
43180;PMS7003;28798;54.950;26.362;2022-08-04T13:13:44;3.7;3.4;3.4
43180;PMS7003;28798;54.950;26.362;2022-08-04T13:18:46;2.7;2.7;2.1
43180;PMS7003;28798;54.950;26.362;2022-08-04T13:23:44;2.6;2.5;2.2
43180;PMS7003;28798;54.950;26.362;2022-08-04T13:33:46;2.8;2.8;2.4
43180;PMS7003;28798;54.950;26.362;2022-08-04T13:38:46;2.6;2.6;2.2
43180;PMS7003;28798;54.950;26.362;2022-08-04T13:43:45;3;2.7;2.2
43180;PMS7003;28798;54.950;26.362;2022-08-04T13:48:44;2.5;2.5;2.5
43180;PMS7003;28798;54.950;26.362;2022-08-04T13:53:44;3.4;3.4;2.8
43180;PMS7003;28798;54.950;26.362;2022-08-04T13:58:45;2.8;2.8;2.5
43180;PMS7003;28798;54.950;26.362;2022-08-04T14:03:50;2.5;2.5;2.2
43180;PMS7003;28798;54.950;26.362;2022-08-04T14:08:45;2.7;2.7;2.2
43180;PMS7003;28798;54.950;26.362;2022-08-04T14:13:44;2.8;2.8;2.5
43180;PMS7003;28798;54.950;26.362;2022-08-04T14:18:44;2.6;2.6;2.3
43180;PMS7003;28798;54.950;26.362;2022-08-04T14:23:46;2.4;2.4;2
43180;PMS7003;28798;54.950;26.362;2022-08-04T14:28:44;2.2;2.2;2.1
43180;PMS7003;28798;54.950;26.362;2022-08-04T14:33:45;2.7;2.7;2.6
43180;PMS7003;28798;54.950;26.362;2022-08-04T14:38:46;3.2;2.9;2.7
43180;PMS7003;28798;54.950;26.362;2022-08-04T14:43:48;2.3;2.3;2.1
43180;PMS7003;28798;54.950;26.362;2022-08-04T14:49:16;2;1.8;1.5
43180;PMS7003;28798;54.950;26.362;2022-08-04T14:53:46;3.1;3.1;2.6
43180;PMS7003;28798;54.950;26.362;2022-08-04T14:58:44;2.6;2.6;2.6
43180;PMS7003;28798;54.950;26.362;2022-08-04T15:03:44;2.9;2.9;2.6
43180;PMS7003;28798;54.950;26.362;2022-08-04T15:08:44;3.5;3.4;3.1
43180;PMS7003;28798;54.950;26.362;2022-08-04T15:13:44;2.4;2.2;2
43180;PMS7003;28798;54.950;26.362;2022-08-04T15:18:44;2.8;2.5;2.2
43180;PMS7003;28798;54.950;26.362;2022-08-04T15:23:44;3.1;3.1;2.8
43180;PMS7003;28798;54.950;26.362;2022-08-04T15:28:46;3.3;3;2.7
43180;PMS7003;28798;54.950;26.362;2022-08-04T15:33:44;2.1;2.1;1.9
43180;PMS7003;28798;54.950;26.362;2022-08-04T15:39:19;3.5;3.5;3.2
43180;PMS7003;28798;54.950;26.362;2022-08-04T15:44:17;3.3;2.8;2.4
43180;PMS7003;28798;54.950;26.362;2022-08-04T15:48:44;4;3.7;3.3
43180;PMS7003;28798;54.950;26.362;2022-08-04T15:58:48;3.9;3.9;3.4
43180;PMS7003;28798;54.950;26.362;2022-08-04T16:03:45;3.9;3.9;3.4
43180;PMS7003;28798;54.950;26.362;2022-08-04T16:08:57;3.3;2.9;2.7
43180;PMS7003;28798;54.950;26.362;2022-08-04T16:13:55;3.3;2.7;2.3
43180;PMS7003;28798;54.950;26.362;2022-08-04T16:18:44;3.7;3.7;2.9
43180;PMS7003;28798;54.950;26.362;2022-08-04T16:28:44;3.2;3.2;2.8
43180;PMS7003;28798;54.950;26.362;2022-08-04T16:33:45;2.9;2.9;2.6
43180;PMS7003;28798;54.950;26.362;2022-08-04T16:39:00;1.5;1.5;1.5
43180;PMS7003;28798;54.950;26.362;2022-08-04T16:43:44;3.1;3.1;2.9
43180;PMS7003;28798;54.950;26.362;2022-08-04T16:48:47;2.6;2.6;1.9
43180;PMS7003;28798;54.950;26.362;2022-08-04T16:53:45;2.7;2.7;2.5
43180;PMS7003;28798;54.950;26.362;2022-08-04T16:58:44;2.9;2.9;2.1
43180;PMS7003;28798;54.950;26.362;2022-08-04T17:03:51;3.1;3.1;2.7
43180;PMS7003;28798;54.950;26.362;2022-08-04T17:08:45;1.7;1.7;1.7
43180;PMS7003;28798;54.950;26.362;2022-08-04T17:13:44;2.3;2.3;2
43180;PMS7003;28798;54.950;26.362;2022-08-04T17:18:45;3.9;3.7;3.1
43180;PMS7003;28798;54.950;26.362;2022-08-04T17:23:45;2.4;2.4;2.2
43180;PMS7003;28798;54.950;26.362;2022-08-04T17:28:45;2.6;2.6;2.1
43180;PMS7003;28798;54.950;26.362;2022-08-04T17:33:45;2.4;2.4;2.3
43180;PMS7003;28798;54.950;26.362;2022-08-04T17:38:45;3.5;3.5;3.1
43180;PMS7003;28798;54.950;26.362;2022-08-04T17:43:46;2.4;2.4;1.9
43180;PMS7003;28798;54.950;26.362;2022-08-04T17:48:44;3.2;3.1;3
43180;PMS7003;28798;54.950;26.362;2022-08-04T17:53:44;2.5;2.5;1.7
43180;PMS7003;28798;54.950;26.362;2022-08-04T17:58:44;3.4;3.4;3.3
43180;PMS7003;28798;54.950;26.362;2022-08-04T18:03:44;3.4;3.4;3.3
43180;PMS7003;28798;54.950;26.362;2022-08-04T18:08:49;3.8;3.4;3.3
43180;PMS7003;28798;54.950;26.362;2022-08-04T18:13:44;3.5;3.5;2.9
43180;PMS7003;28798;54.950;26.362;2022-08-04T18:18:44;3.6;3.6;2.9
43180;PMS7003;28798;54.950;26.362;2022-08-04T18:23:44;3.5;3.5;3.4
43180;PMS7003;28798;54.950;26.362;2022-08-04T18:28:44;4.6;4.6;3.4
43180;PMS7003;28798;54.950;26.362;2022-08-04T18:33:44;4;4;3.6
43180;PMS7003;28798;54.950;26.362;2022-08-04T18:38:44;3.8;3.8;2.9
43180;PMS7003;28798;54.950;26.362;2022-08-04T18:43:44;4.9;4.9;4.6
43180;PMS7003;28798;54.950;26.362;2022-08-04T18:48:44;3.7;3.7;3.5
43180;PMS7003;28798;54.950;26.362;2022-08-04T18:53:44;4.2;4;3.5
43180;PMS7003;28798;54.950;26.362;2022-08-04T18:58:44;3.4;3.2;3
43180;PMS7003;28798;54.950;26.362;2022-08-04T19:03:44;5.8;5.6;4.5
43180;PMS7003;28798;54.950;26.362;2022-08-04T19:08:44;4.8;4.8;4.1
43180;PMS7003;28798;54.950;26.362;2022-08-04T19:13:44;4.8;4.8;4.1
43180;PMS7003;28798;54.950;26.362;2022-08-04T19:18:44;5;5;4.4
43180;PMS7003;28798;54.950;26.362;2022-08-04T19:23:44;4.9;4.7;4.1
43180;PMS7003;28798;54.950;26.362;2022-08-04T19:28:44;4.6;4.6;4.3
43180;PMS7003;28798;54.950;26.362;2022-08-04T19:33:44;4.6;4.6;4.3
43180;PMS7003;28798;54.950;26.362;2022-08-04T19:38:44;4.8;4.8;4.1
43180;PMS7003;28798;54.950;26.362;2022-08-04T19:43:44;2.4;2.4;2
43180;PMS7003;28798;54.950;26.362;2022-08-04T19:48:44;5.7;5.5;4.6
43180;PMS7003;28798;54.950;26.362;2022-08-04T19:53:44;5.6;5.6;4.4
43180;PMS7003;28798;54.950;26.362;2022-08-04T19:58:44;6.4;6.4;5
43180;PMS7003;28798;54.950;26.362;2022-08-04T20:03:44;4.4;4.4;3.9
43180;PMS7003;28798;54.950;26.362;2022-08-04T20:08:44;6.4;6.1;5.2
43180;PMS7003;28798;54.950;26.362;2022-08-04T20:13:44;5.5;5.5;4.8
43180;PMS7003;28798;54.950;26.362;2022-08-04T20:18:44;5.5;5.5;4.8
43180;PMS7003;28798;54.950;26.362;2022-08-04T20:23:44;5.5;5.5;4.8
43180;PMS7003;28798;54.950;26.362;2022-08-04T20:28:44;4.5;4.5;3.9
43180;PMS7003;28798;54.950;26.362;2022-08-04T20:33:44;5.5;5.5;4.3
43180;PMS7003;28798;54.950;26.362;2022-08-04T20:38:44;4.5;4.5;3.9
43180;PMS7003;28798;54.950;26.362;2022-08-04T20:43:44;4.5;4.5;3.9
43180;PMS7003;28798;54.950;26.362;2022-08-04T20:48:44;4.3;4.3;3.2
43180;PMS7003;28798;54.950;26.362;2022-08-04T20:53:45;4.3;4.3;3.2
43180;PMS7003;28798;54.950;26.362;2022-08-04T20:58:44;4.5;4.5;4
43180;PMS7003;28798;54.950;26.362;2022-08-04T21:03:44;6.2;5.8;4.9
43180;PMS7003;28798;54.950;26.362;2022-08-04T21:08:44;7.2;6.6;5.9
43180;PMS7003;28798;54.950;26.362;2022-08-04T21:13:44;5.2;5.2;4.6
43180;PMS7003;28798;54.950;26.362;2022-08-04T21:18:44;6.4;6.4;5.4
43180;PMS7003;28798;54.950;26.362;2022-08-04T21:23:44;6.4;6.4;5.4
43180;PMS7003;28798;54.950;26.362;2022-08-04T21:28:44;5.8;5.4;4
43180;PMS7003;28798;54.950;26.362;2022-08-04T21:33:44;6.6;6.3;5.5
43180;PMS7003;28798;54.950;26.362;2022-08-04T21:38:44;6.6;6.3;5.5
43180;PMS7003;28798;54.950;26.362;2022-08-04T21:43:44;4.6;4.6;4.1
43180;PMS7003;28798;54.950;26.362;2022-08-04T21:48:44;5.6;5.6;4.8
43180;PMS7003;28798;54.950;26.362;2022-08-04T21:53:44;4;4;3.2
43180;PMS7003;28798;54.950;26.362;2022-08-04T21:58:44;6.7;6.7;5.4
43180;PMS7003;28798;54.950;26.362;2022-08-04T22:03:45;6.7;6.7;5.4
43180;PMS7003;28798;54.950;26.362;2022-08-04T22:08:44;5.9;5.9;4.7
43180;PMS7003;28798;54.950;26.362;2022-08-04T22:13:44;5.9;5.9;4.7
43180;PMS7003;28798;54.950;26.362;2022-08-04T22:18:44;5.9;5.9;4.7
43180;PMS7003;28798;54.950;26.362;2022-08-04T22:23:44;7.2;6.7;5.2
43180;PMS7003;28798;54.950;26.362;2022-08-04T22:28:44;5.1;5.1;4.8
43180;PMS7003;28798;54.950;26.362;2022-08-04T22:33:44;5.1;5.1;4.8
43180;PMS7003;28798;54.950;26.362;2022-08-04T22:38:44;5.7;5.7;4.7
43180;PMS7003;28798;54.950;26.362;2022-08-04T22:43:44;5.7;5.7;4.7
43180;PMS7003;28798;54.950;26.362;2022-08-04T22:48:44;5;4.6;4.2
43180;PMS7003;28798;54.950;26.362;2022-08-04T22:53:44;5;4.6;4.2
43180;PMS7003;28798;54.950;26.362;2022-08-04T22:58:44;4.2;4.2;3.8
43180;PMS7003;28798;54.950;26.362;2022-08-04T23:03:44;7.2;6.9;5.6
43180;PMS7003;28798;54.950;26.362;2022-08-04T23:08:44;7.2;6.9;5.6
43180;PMS7003;28798;54.950;26.362;2022-08-04T23:13:44;6;6;5.2
43180;PMS7003;28798;54.950;26.362;2022-08-04T23:18:44;6.2;6.2;5.3
43180;PMS7003;28798;54.950;26.362;2022-08-04T23:23:44;6.2;6.2;5.3
43180;PMS7003;28798;54.950;26.362;2022-08-04T23:28:44;6.1;5.8;4.8
43180;PMS7003;28798;54.950;26.362;2022-08-04T23:33:44;7;6.9;5.3
43180;PMS7003;28798;54.950;26.362;2022-08-04T23:38:44;7;6.9;5.3
43180;PMS7003;28798;54.950;26.362;2022-08-04T23:43:44;5.5;5.1;3.9
43180;PMS7003;28798;54.950;26.362;2022-08-04T23:48:44;5.5;5.1;3.9
43180;PMS7003;28798;54.950;26.362;2022-08-04T23:53:44;5.1;4.5;3.9
43180;PMS7003;28798;54.950;26.362;2022-08-04T23:58:44;6.7;6.7;5.4
